Time;durP1;ratioP1;P1;durP2;ratioP2;P2;SDS_P1;SDS_P2;PMS_P1;PMS_P2;Temp;Humidity;BMP_temperature;BMP_pressure;BME280_temperature;BME280_humidity;BME280_pressure;Samples;Min_cycle;Max_cycle;Signal;HPM_P1;HPM_P2
2022/11/05 00:09:27;;;;;;;8.27;4.95;;;;;;;10.94;81.55;100371.34;4147103;28;21108;-67
2022/11/05 00:10:05;;;;;;;9.88;5.60;;;;;;;10.89;80.41;100396.41;4143410;28;20030;-68
2022/11/05 00:16:51;;;;;;;11.43;5.45;;;;;;;10.93;81.13;100399.06;4143881;28;20084;-69
2022/11/05 00:19:06;;;;;;;8.00;5.50;;;;;;;10.94;81.02;100399.94;4141602;28;20049;-67
2022/11/05 00:25:54;;;;;;;9.90;5.18;;;;;;;10.93;80.98;100406.00;4148359;28;20042;-67
2022/11/05 00:28:01;;;;;;;8.18;5.50;;;;;;;10.92;81.05;100405.13;4143474;28;20497;-67
2022/11/05 00:30:04;;;;;;;7.28;4.63;;;;;;;10.92;81.13;100412.94;4140599;28;20045;-67
2022/11/05 00:32:07;;;;;;;9.67;5.23;;;;;;;10.90;81.04;100418.97;4145566;28;20052;-68
2022/11/05 00:34:10;;;;;;;10.65;5.10;;;;;;;10.89;80.97;100419.81;4146268;28;20301;-67
2022/11/05 00:36:14;;;;;;;9.05;5.35;;;;;;;10.93;81.32;100424.22;4137347;28;20310;-67
2022/11/05 00:38:17;;;;;;;10.63;4.75;;;;;;;10.90;80.62;100425.03;4136425;28;20089;-67
2022/11/05 00:40:20;;;;;;;9.00;5.40;;;;;;;10.91;81.02;100431.13;4134591;28;20030;-67
2022/11/05 00:45:01;;;;;;;10.20;6.75;;;;;;;10.82;80.54;100431.88;4141150;28;20065;-67
2022/11/05 00:49:30;;;;;;;9.32;5.40;;;;;;;10.85;80.56;100441.44;4135844;28;20038;-67
2022/11/05 00:51:34;;;;;;;10.25;5.95;;;;;;;10.83;80.92;100439.72;4130973;28;20053;-67
2022/11/05 00:53:37;;;;;;;9.02;4.30;;;;;;;10.81;80.64;100446.59;4162889;28;20042;-67
2022/11/05 00:55:41;;;;;;;9.60;5.55;;;;;;;10.77;80.99;100449.16;4165381;28;20107;-67
2022/11/05 00:57:44;;;;;;;7.25;4.85;;;;;;;10.73;80.97;100449.94;4146522;28;20415;-67
2022/11/05 00:59:47;;;;;;;8.32;5.00;;;;;;;10.70;80.58;100442.13;4165474;28;20101;-67
2022/11/05 01:01:50;;;;;;;6.80;4.50;;;;;;;10.66;81.13;100451.63;4146519;28;20045;-67
2022/11/05 01:03:53;;;;;;;10.13;4.93;;;;;;;10.65;81.58;100442.91;4165386;28;20037;-67
2022/11/05 01:05:57;;;;;;;8.55;5.68;;;;;;;10.67;80.98;100442.06;4152690;28;20092;-67
2022/11/05 01:08:01;;;;;;;7.07;4.25;;;;;;;10.65;81.61;100449.84;4127223;28;20042;-67
2022/11/05 01:10:05;;;;;;;8.63;5.00;;;;;;;10.56;80.88;100450.59;4147767;28;20124;-67
2022/11/05 01:12:08;;;;;;;7.05;4.40;;;;;;;10.60;81.71;100454.09;4151863;28;20579;-69
2022/11/05 01:14:13;;;;;;;8.57;5.43;;;;;;;10.62;81.19;100457.63;4155624;28;20044;-68
2022/11/05 01:16:16;;;;;;;8.20;5.15;;;;;;;10.64;81.79;100458.50;4162052;28;20060;-68
2022/11/05 01:18:20;;;;;;;11.15;5.40;;;;;;;10.69;81.07;100456.84;4131322;28;20133;-69
2022/11/05 01:20:23;;;;;;;9.63;4.82;;;;;;;10.68;80.90;100447.28;4147460;28;20034;-69
2022/11/05 01:22:26;;;;;;;6.97;4.40;;;;;;;10.69;81.12;100451.66;4160527;28;20076;-68
2022/11/05 01:24:30;;;;;;;6.97;4.80;;;;;;;10.75;80.77;100461.25;4153086;28;20119;-69
2022/11/05 01:26:33;;;;;;;6.53;4.95;;;;;;;10.71;81.04;100455.13;4144727;28;20088;-67
2022/11/05 01:28:36;;;;;;;6.45;4.10;;;;;;;10.75;80.53;100463.88;4138640;28;20092;-67
2022/11/05 01:30:39;;;;;;;8.35;4.43;;;;;;;10.70;81.52;100463.78;4146847;28;20128;-68
2022/11/05 01:32:42;;;;;;;7.03;4.32;;;;;;;10.63;80.55;100464.53;4154845;28;20041;-68
2022/11/05 01:34:45;;;;;;;9.07;4.82;;;;;;;10.65;81.21;100471.50;4162625;28;20045;-68
2022/11/05 01:36:48;;;;;;;5.55;3.90;;;;;;;10.68;80.65;100470.69;4147234;28;20116;-68
2022/11/05 01:38:50;;;;;;;7.35;4.32;;;;;;;10.70;80.36;100468.13;4148503;28;20455;-68
2022/11/05 01:40:55;;;;;;;9.02;4.90;;;;;;;10.72;80.93;100466.41;4130782;28;20039;-68
2022/11/05 01:42:57;;;;;;;7.28;4.50;;;;;;;10.68;81.14;100475.91;4162820;28;20446;-68
2022/11/05 01:45:04;;;;;;;8.52;4.47;;;;;;;10.65;80.34;100475.84;4145294;28;20488;-69
2022/11/05 01:47:17;;;;;;;8.32;4.55;;;;;;;10.60;81.06;100478.41;4147069;28;20050;-68
2022/11/05 01:49:27;;;;;;;6.50;4.05;;;;;;;10.57;81.37;100482.66;4147927;28;20057;-68
2022/11/05 01:51:31;;;;;;;7.85;4.47;;;;;;;10.53;80.75;100480.84;4147568;28;20137;-67
2022/11/05 01:53:38;;;;;;;8.02;4.75;;;;;;;10.52;81.35;100485.19;4138058;28;20033;-67
2022/11/05 01:55:47;;;;;;;6.38;4.03;;;;;;;10.46;80.63;100485.13;4155725;28;20045;-67
2022/11/05 01:57:54;;;;;;;9.57;5.18;;;;;;;10.41;80.94;100497.16;4136521;28;20107;-68
2022/11/05 01:59:59;;;;;;;9.57;4.53;;;;;;;10.39;81.54;100488.47;4146961;28;20479;-68
2022/11/05 02:02:03;;;;;;;8.65;4.47;;;;;;;10.43;81.23;100495.47;4147531;28;20038;-67
2022/11/05 02:04:10;;;;;;;6.93;4.15;;;;;;;10.44;81.82;100497.19;4159771;28;20029;-67
2022/11/05 02:06:15;;;;;;;6.68;4.22;;;;;;;10.46;81.54;100498.97;4151454;28;20033;-67
2022/11/05 02:08:25;;;;;;;11.68;5.97;;;;;;;10.45;81.62;100502.44;4149760;28;20057;-67
2022/11/05 02:10:29;;;;;;;7.68;4.43;;;;;;;10.43;81.14;100506.72;4145870;28;20030;-67
2022/11/05 02:12:33;;;;;;;6.15;3.88;;;;;;;10.42;81.93;100506.69;4148845;28;20042;-67
2022/11/05 02:14:37;;;;;;;8.07;5.07;;;;;;;10.43;81.58;100509.31;4152884;28;20105;-67
2022/11/05 02:16:46;;;;;;;6.65;4.38;;;;;;;10.37;81.96;100504.03;4137874;28;20714;-67
2022/11/05 02:18:57;;;;;;;5.95;4.18;;;;;;;10.43;81.71;100500.66;4147958;28;20046;-67
2022/11/05 02:21:25;;;;;;;6.53;4.10;;;;;;;10.45;81.44;100506.75;4145409;28;20033;-68
2022/11/05 02:24:05;;;;;;;5.90;3.97;;;;;;;10.50;81.96;100512.00;4150815;28;20069;-67
2022/11/05 02:26:43;;;;;;;10.00;5.30;;;;;;;10.43;81.04;100508.47;4140621;28;20108;-67
2022/11/05 02:29:10;;;;;;;7.90;4.88;;;;;;;10.51;81.23;100516.38;4152066;28;20049;-67
2022/11/05 02:31:21;;;;;;;9.00;5.78;;;;;;;10.44;81.69;100518.88;4137833;28;20034;-67
2022/11/05 02:33:34;;;;;;;7.40;4.68;;;;;;;10.41;81.92;100518.84;4155054;28;20100;-67
2022/11/05 02:35:52;;;;;;;8.23;5.38;;;;;;;10.39;81.94;100520.50;4145157;28;20431;-68
2022/11/05 02:38:06;;;;;;;10.70;5.72;;;;;;;10.37;81.66;100527.44;4140505;28;20040;-68
2022/11/05 02:40:17;;;;;;;10.20;5.70;;;;;;;10.40;81.67;100529.22;4146721;28;20041;-68
2022/11/05 02:42:30;;;;;;;11.73;6.30;;;;;;;10.39;81.05;100533.50;4144304;28;20099;-68
2022/11/05 02:44:41;;;;;;;7.40;4.95;;;;;;;10.39;81.22;100530.03;4154360;28;20038;-67
2022/11/05 02:46:54;;;;;;;11.88;6.05;;;;;;;10.44;81.34;100526.69;4143944;28;20038;-68
2022/11/05 02:49:06;;;;;;;8.55;5.55;;;;;;;10.50;81.44;100532.81;4141036;28;20035;-68
2022/11/05 02:51:16;;;;;;;9.80;5.53;;;;;;;10.46;81.31;100537.97;4147198;28;20049;-67
2022/11/05 02:53:28;;;;;;;9.57;6.03;;;;;;;10.48;81.15;100536.28;4150761;28;20041;-67
2022/11/05 02:55:58;;;;;;;10.38;7.15;;;;;;;10.60;80.66;100543.38;4147297;28;20177;-66
2022/11/05 02:58:03;;;;;;;11.85;6.65;;;;;;;10.52;80.15;100531.13;4136514;28;20045;-66
2022/11/05 03:00:28;;;;;;;12.20;9.05;;;;;;;10.47;80.52;100537.13;4146845;28;20046;-66
2022/11/05 03:02:32;;;;;;;13.50;7.60;;;;;;;10.42;79.83;100527.50;4156861;28;20037;-66
2022/11/05 03:04:35;;;;;;;;;;;;;;;10.32;80.33;100536.81;4147941;28;20328;-66
2022/11/05 03:06:52;;;;;;;12.13;8.20;;;;;;;10.38;79.63;100533.47;4138556;28;19922;-66
2022/11/05 03:09:12;;;;;;;13.32;8.52;;;;;;;10.36;79.97;100535.19;4146949;28;20045;-66
2022/11/05 03:11:18;;;;;;;18.75;9.07;;;;;;;10.31;80.13;100541.16;4144008;28;20049;-66
2022/11/05 03:13:28;;;;;;;14.80;9.65;;;;;;;10.37;79.62;100536.97;4135066;28;20053;-66
2022/11/05 03:15:45;;;;;;;14.77;9.15;;;;;;;10.42;79.57;100541.34;4154221;28;20033;-66
2022/11/05 03:17:59;;;;;;;13.45;9.18;;;;;;;10.43;79.51;100545.72;4146230;28;20037;-66
2022/11/05 03:20:11;;;;;;;12.20;8.85;;;;;;;10.50;79.31;100551.91;4145632;28;20037;-66
2022/11/05 03:22:18;;;;;;;14.85;9.65;;;;;;;10.50;79.65;100551.91;4143788;28;20038;-67
2022/11/05 03:24:26;;;;;;;14.60;9.10;;;;;;;10.58;79.03;100552.00;4147398;28;20141;-67
2022/11/05 03:26:33;;;;;;;15.27;10.20;;;;;;;10.63;79.43;100555.53;4145890;28;20042;-67
2022/11/05 03:28:41;;;;;;;14.35;8.88;;;;;;;10.59;79.34;100557.22;4146115;28;20045;-67
2022/11/05 03:30:45;;;;;;;13.43;9.10;;;;;;;10.60;78.96;100565.88;4145176;28;20042;-67
2022/11/05 03:32:54;;;;;;;14.70;9.88;;;;;;;10.52;79.20;100568.38;4146616;28;20045;-67
2022/11/05 03:35:02;;;;;;;14.63;9.13;;;;;;;10.40;78.97;100574.25;4141037;28;20128;-67
2022/11/05 03:37:08;;;;;;;11.80;8.15;;;;;;;10.37;79.64;100571.59;4145043;28;20034;-67
2022/11/05 03:39:16;;;;;;;11.75;8.68;;;;;;;10.37;79.15;100574.19;4145345;28;20046;-67
2022/11/05 03:41:21;;;;;;;13.65;9.05;;;;;;;10.37;79.32;100575.94;4144657;28;20037;-67
2022/11/05 03:43:29;;;;;;;15.20;8.40;;;;;;;10.28;80.10;100584.41;4152898;28;20488;-67
2022/11/05 03:45:38;;;;;;;12.07;8.00;;;;;;;10.25;79.30;100584.34;4143546;28;20034;-67
2022/11/05 03:47:44;;;;;;;13.77;9.15;;;;;;;10.24;79.69;100593.88;4144084;28;20065;-67
2022/11/05 03:49:54;;;;;;;14.07;8.52;;;;;;;10.33;79.79;100590.56;4160691;28;20037;-67
2022/11/05 03:52:04;;;;;;;13.57;8.82;;;;;;;10.33;80.08;100589.69;4155576;28;20156;-67
2022/11/05 03:54:07;;;;;;;10.38;7.07;;;;;;;10.35;79.45;100595.81;4153870;28;20703;-67
2022/11/05 03:56:17;;;;;;;13.40;7.68;;;;;;;10.53;78.52;100597.84;4144731;28;20053;-70
2022/11/05 03:58:21;;;;;;;10.25;7.68;;;;;;;10.53;77.33;100605.63;4144442;28;20033;-68
2022/11/05 04:00:24;;;;;;;11.70;8.68;;;;;;;10.47;75.97;100602.09;4143101;28;20044;-68
2022/11/05 04:02:27;;;;;;;10.05;6.57;;;;;;;10.43;76.23;100610.69;4154708;28;20060;-69
2022/11/05 04:04:30;;;;;;;10.63;7.30;;;;;;;10.43;76.40;100602.88;4154228;28;20068;-67
2022/11/05 04:13:34;;;;;;;9.25;5.50;;;;;;;10.21;75.94;100617.19;4116037;28;20046;-67
2022/11/05 04:17:57;;;;;;;9.15;5.40;;;;;;;10.29;74.91;100625.13;4146045;28;20439;-67
2022/11/05 04:24:43;;;;;;;8.25;5.53;;;;;;;10.13;75.58;100624.84;4135991;28;20069;-66
2022/11/05 04:26:46;;;;;;;8.23;5.03;;;;;;;10.03;76.49;100619.44;4164722;28;20076;-67
2022/11/05 04:31:12;;;;;;;10.70;6.00;;;;;;;10.06;76.09;100628.19;4124542;28;20108;-67
2022/11/05 04:33:16;;;;;;;8.65;5.20;;;;;;;10.26;75.19;100638.94;4146231;28;20042;-67
2022/11/05 04:35:19;;;;;;;7.38;5.50;;;;;;;10.17;74.81;100633.56;4149513;28;20080;-67
2022/11/05 04:37:22;;;;;;;8.13;5.80;;;;;;;10.25;74.40;100637.19;4166225;28;20092;-67
2022/11/05 04:39:25;;;;;;;9.10;5.85;;;;;;;10.09;75.17;100641.22;4165036;28;20045;-67
2022/11/05 04:41:29;;;;;;;11.13;5.57;;;;;;;10.00;75.51;100641.03;4159252;28;20038;-67
2022/11/05 04:43:32;;;;;;;7.55;4.97;;;;;;;9.99;76.46;100651.38;4148337;28;20496;-67
2022/11/05 04:45:35;;;;;;;7.95;4.50;;;;;;;10.16;75.04;100643.94;4154440;28;20061;-67
2022/11/05 04:47:38;;;;;;;8.80;4.80;;;;;;;9.99;75.13;100644.50;4147104;28;20058;-67
2022/11/05 04:49:41;;;;;;;8.10;4.82;;;;;;;9.95;75.58;100637.50;4173308;28;20469;-67
2022/11/05 04:51:44;;;;;;;6.25;4.18;;;;;;;10.01;75.73;100647.13;4146772;28;20034;-68
2022/11/05 04:53:46;;;;;;;6.20;4.18;;;;;;;10.03;75.36;100641.13;4160814;28;20034;-67
2022/11/05 04:55:49;;;;;;;8.77;4.55;;;;;;;10.08;74.51;100644.66;4145896;28;20033;-67
2022/11/05 04:57:54;;;;;;;7.55;3.85;;;;;;;10.02;75.22;100641.97;4149160;28;20052;-67
2022/11/05 04:59:57;;;;;;;;;;;;;;;9.90;75.48;100652.09;4166205;28;20092;-66
2022/11/05 05:01:59;;;;;;;5.88;4.00;;;;;;;9.97;75.29;100646.16;4166963;28;19952;-67
2022/11/05 05:04:02;;;;;;;7.18;4.22;;;;;;;10.06;74.26;100654.16;4148633;28;20038;-66
2022/11/05 05:06:05;;;;;;;6.22;3.83;;;;;;;9.94;74.29;100651.31;4162235;28;20495;-66
2022/11/05 05:08:09;;;;;;;6.13;4.10;;;;;;;9.84;75.19;100654.56;4156155;28;20048;-66
2022/11/05 05:10:12;;;;;;;6.10;3.30;;;;;;;9.79;75.00;100657.94;4153006;28;20473;-67
2022/11/05 05:12:14;;;;;;;5.90;3.17;;;;;;;9.76;74.34;100663.06;4152343;28;20100;-66
2022/11/05 05:14:19;;;;;;;6.82;3.88;;;;;;;9.78;75.30;100661.41;4148324;28;20065;-67
2022/11/05 05:16:23;;;;;;;6.05;3.88;;;;;;;10.03;74.17;100659.31;4148559;28;20030;-66
2022/11/05 05:18:26;;;;;;;5.68;3.45;;;;;;;10.06;73.30;100664.56;4151460;28;20160;-66
2022/11/05 05:22:53;;;;;;;8.60;4.20;;;;;;;9.94;73.97;100672.97;4143003;28;20444;-66
2022/11/05 05:24:56;;;;;;;6.97;3.95;;;;;;;9.98;73.21;100673.91;4141228;28;20068;-66
2022/11/05 05:26:58;;;;;;;6.07;4.18;;;;;;;9.92;74.35;100676.38;4149752;28;20345;-68
2022/11/05 05:29:01;;;;;;;7.82;4.53;;;;;;;10.02;73.83;100680.06;4151104;28;20063;-66
2022/11/05 05:31:06;;;;;;;5.47;3.78;;;;;;;10.01;73.20;100676.56;4145870;28;20041;-67
2022/11/05 05:33:08;;;;;;;6.85;3.88;;;;;;;9.89;74.14;100684.13;4135847;28;20399;-67
2022/11/05 05:35:12;;;;;;;5.38;3.83;;;;;;;9.95;74.00;100679.03;4148634;28;20475;-67
2022/11/05 05:37:15;;;;;;;5.15;3.65;;;;;;;9.99;73.39;100682.56;4150647;28;20052;-67
2022/11/05 05:39:18;;;;;;;5.88;3.72;;;;;;;9.98;74.03;100693.81;4147693;28;20069;-67
2022/11/05 05:41:21;;;;;;;6.65;4.00;;;;;;;10.08;72.93;100687.97;4145252;28;20034;-68
2022/11/05 05:43:23;;;;;;;6.13;3.55;;;;;;;9.89;73.18;100686.72;4121255;28;20751;-69
2022/11/05 05:45:26;;;;;;;4.75;3.20;;;;;;;9.79;74.67;100699.47;4144110;28;20042;-68
2022/11/05 05:47:30;;;;;;;5.32;3.30;;;;;;;9.75;74.28;100691.59;4145435;28;20047;-68
2022/11/05 05:49:33;;;;;;;7.35;3.35;;;;;;;9.61;75.19;100699.09;4150938;28;20470;-69
2022/11/05 05:51:36;;;;;;;3.85;2.80;;;;;;;9.61;75.15;100701.69;4144650;28;20045;-68
2022/11/05 05:53:39;;;;;;;4.55;2.67;;;;;;;9.60;74.91;100707.72;4147359;28;20088;-68
2022/11/05 05:55:42;;;;;;;7.80;4.10;;;;;;;9.87;74.51;100709.16;4146464;28;20065;-68
2022/11/05 05:57:45;;;;;;;6.85;3.67;;;;;;;9.79;74.80;100703.81;4147818;28;20099;-69
2022/11/05 05:59:47;;;;;;;7.15;3.17;;;;;;;9.77;74.35;100715.91;4142310;28;20046;-69
2022/11/05 06:01:50;;;;;;;8.68;3.90;;;;;;;9.83;74.03;100721.22;4143154;28;20092;-69
2022/11/05 06:03:55;;;;;;;6.10;3.50;;;;;;;9.85;73.92;100714.31;4170180;28;20120;-69
2022/11/05 06:06:01;;;;;;;7.65;3.97;;;;;;;9.79;73.95;100720.25;4141566;28;20443;-69
2022/11/05 06:08:05;;;;;;;6.10;3.80;;;;;;;9.81;74.61;100722.00;4145014;28;20422;-69
2022/11/05 06:10:08;;;;;;;6.55;3.60;;;;;;;9.81;74.85;100735.00;4143429;28;20096;-69
2022/11/05 06:12:11;;;;;;;10.07;4.35;;;;;;;9.99;74.12;100732.81;4146175;28;20096;-69
2022/11/05 06:14:14;;;;;;;4.82;3.25;;;;;;;9.91;74.28;100731.75;4144671;28;20026;-70
2022/11/05 06:16:19;;;;;;;7.65;4.43;;;;;;;9.88;74.92;100739.47;4134097;28;20068;-69
2022/11/05 06:18:22;;;;;;;7.10;3.85;;;;;;;9.78;74.64;100738.41;4141995;28;20066;-68
2022/11/05 06:20:27;;;;;;;6.25;3.80;;;;;;;9.82;73.84;100744.56;4146623;28;20550;-68
2022/11/05 06:22:30;;;;;;;7.30;4.45;;;;;;;9.73;75.21;100742.63;4144971;28;20438;-68
2022/11/05 06:24:34;;;;;;;8.30;4.28;;;;;;;9.77;74.63;100750.50;4138925;28;20076;-67
2022/11/05 06:26:41;;;;;;;6.40;4.07;;;;;;;9.79;75.10;100756.59;4135957;28;20038;-68
2022/11/05 06:28:45;;;;;;;7.45;4.95;;;;;;;9.76;75.14;100756.53;4147924;28;20044;-67
2022/11/05 06:30:51;;;;;;;8.68;5.20;;;;;;;9.76;75.48;100759.13;4138386;28;20050;-68
2022/11/05 06:32:54;;;;;;;7.35;4.70;;;;;;;9.74;75.07;100762.56;4135999;28;20044;-67
2022/11/05 06:34:57;;;;;;;7.50;4.85;;;;;;;9.71;75.69;100763.38;4147015;28;20499;-70
2022/11/05 06:37:01;;;;;;;11.07;5.57;;;;;;;9.75;75.69;100764.28;4141669;28;20049;-71
2022/11/05 06:39:04;;;;;;;8.60;4.88;;;;;;;9.70;75.84;100776.31;4147567;28;20042;-70
2022/11/05 06:41:07;;;;;;;9.60;5.22;;;;;;;9.73;75.51;100776.38;4146650;28;20041;-70
2022/11/05 06:43:12;;;;;;;9.82;4.93;;;;;;;9.68;76.23;100785.75;4141591;28;20053;-71
2022/11/05 06:45:16;;;;;;;9.38;5.18;;;;;;;9.61;76.16;100787.38;4129183;28;20038;-70
2022/11/05 06:47:19;;;;;;;6.88;4.68;;;;;;;9.58;76.09;100784.69;4144502;28;20049;-69
2022/11/05 06:49:23;;;;;;;10.93;5.07;;;;;;;9.55;76.61;100784.59;4143122;28;20060;-69
2022/11/05 06:51:26;;;;;;;8.00;4.85;;;;;;;9.55;76.68;100792.38;4148715;28;20045;-68
2022/11/05 06:53:31;;;;;;;10.98;4.80;;;;;;;9.56;76.69;100792.44;4147708;28;20033;-69
2022/11/05 06:55:33;;;;;;;8.00;4.88;;;;;;;9.63;77.11;100795.19;4131795;28;20473;-68
2022/11/05 06:57:37;;;;;;;8.13;4.65;;;;;;;9.66;76.79;100793.53;4131528;28;20065;-68
2022/11/05 06:59:41;;;;;;;8.17;4.47;;;;;;;9.72;76.83;100795.38;4135733;28;20038;-68
2022/11/05 07:01:43;;;;;;;9.75;5.07;;;;;;;9.75;76.59;100798.94;4144352;28;20033;-70
2022/11/05 07:03:47;;;;;;;10.68;4.78;;;;;;;9.84;75.82;100795.69;4145062;28;20070;-68
2022/11/05 07:05:51;;;;;;;8.43;5.22;;;;;;;9.87;75.80;100805.25;4142725;28;20038;-67
2022/11/05 07:07:53;;;;;;;9.60;4.50;;;;;;;9.89;75.77;100808.75;4162329;28;20045;-68
2022/11/05 07:09:58;;;;;;;7.88;4.82;;;;;;;9.89;75.76;100803.56;4152770;28;20040;-70
2022/11/05 07:12:00;;;;;;;9.25;4.85;;;;;;;9.94;75.37;100812.31;4141153;28;20448;-72
2022/11/05 07:14:03;;;;;;;7.25;4.40;;;;;;;9.98;75.59;100821.94;4143451;28;20046;-71
2022/11/05 07:16:07;;;;;;;6.30;4.07;;;;;;;9.96;75.30;100826.25;4144129;28;20444;-71
2022/11/05 07:18:10;;;;;;;9.10;4.60;;;;;;;9.96;75.91;100836.63;4147043;28;20065;-71
2022/11/05 07:20:13;;;;;;;7.18;4.68;;;;;;;10.00;75.59;100837.56;4144332;28;20045;-71
2022/11/05 07:22:16;;;;;;;6.93;4.30;;;;;;;10.05;75.50;100831.63;4146505;28;20463;-71
2022/11/05 07:24:18;;;;;;;8.55;4.80;;;;;;;10.03;75.48;100842.81;4145193;28;20116;-72
2022/11/05 07:26:23;;;;;;;8.50;5.32;;;;;;;10.05;75.42;100838.56;4146762;28;20499;-71
2022/11/05 07:28:26;;;;;;;8.07;4.60;;;;;;;10.04;75.69;100849.78;4147017;28;20038;-71
2022/11/05 07:30:29;;;;;;;7.90;4.50;;;;;;;10.08;75.21;100855.06;4146895;28;20038;-71
2022/11/05 07:32:37;;;;;;;7.60;5.18;;;;;;;10.16;74.77;100849.19;4144227;28;20041;-64
2022/11/05 07:34:40;;;;;;;8.45;4.85;;;;;;;10.11;75.18;100846.47;4159505;28;20045;-65
2022/11/05 07:36:42;;;;;;;8.10;4.60;;;;;;;10.12;75.03;100849.13;4147469;28;20037;-64
2022/11/05 07:38:45;;;;;;;10.05;5.05;;;;;;;10.07;74.81;100855.91;4138481;28;20046;-66
2022/11/05 07:40:48;;;;;;;13.73;5.78;;;;;;;10.05;74.98;100857.59;4138739;28;20043;-67
2022/11/05 07:42:54;;;;;;;8.23;4.97;;;;;;;10.13;74.27;100855.16;4147536;28;20038;-67
2022/11/05 07:44:56;;;;;;;7.38;4.95;;;;;;;10.11;75.35;100856.88;4147165;28;20049;-66
2022/11/05 07:46:59;;;;;;;7.88;5.50;;;;;;;10.07;75.46;100866.31;4147218;28;20069;-68
2022/11/05 07:49:03;;;;;;;7.15;5.18;;;;;;;10.12;75.02;100863.84;4150175;28;20100;-66
2022/11/05 07:51:06;;;;;;;11.27;5.35;;;;;;;10.06;75.29;100879.25;4141350;28;20038;-67
2022/11/05 07:53:11;;;;;;;11.15;5.38;;;;;;;10.07;75.39;100871.50;4159583;28;20073;-66
2022/11/05 07:55:16;;;;;;;8.05;4.88;;;;;;;10.03;75.16;100881.78;4164942;28;20038;-66
2022/11/05 07:57:18;;;;;;;10.00;5.10;;;;;;;10.10;74.77;100884.59;4141260;28;20435;-66
2022/11/05 07:59:22;;;;;;;8.13;5.35;;;;;;;10.09;74.59;100887.13;4129109;28;20380;-65
2022/11/05 08:01:25;;;;;;;8.00;5.20;;;;;;;10.07;75.53;100889.69;4147858;28;20041;-65
2022/11/05 08:03:28;;;;;;;8.85;5.30;;;;;;;10.05;75.93;100888.78;4164623;28;20037;-65
2022/11/05 08:05:33;;;;;;;10.95;5.65;;;;;;;9.99;75.57;100893.84;4147053;28;20037;-65
2022/11/05 08:07:36;;;;;;;8.63;5.97;;;;;;;9.96;75.05;100897.22;4164705;28;20088;-65
2022/11/05 08:09:39;;;;;;;7.82;4.57;;;;;;;10.04;75.64;100897.41;4141674;28;20037;-66
2022/11/05 08:11:42;;;;;;;9.48;5.45;;;;;;;10.02;75.37;100909.50;4157413;28;20034;-67
2022/11/05 08:13:45;;;;;;;11.02;6.45;;;;;;;9.99;75.20;100904.22;4145254;28;20050;-66
2022/11/05 08:15:49;;;;;;;8.90;5.70;;;;;;;10.01;75.07;100912.06;4140160;28;20049;-66
2022/11/05 08:17:58;;;;;;;11.20;5.70;;;;;;;9.99;74.58;100911.13;4148135;28;20042;-66
2022/11/05 08:20:01;;;;;;;8.43;5.50;;;;;;;10.05;75.28;100914.75;4140070;28;20108;-66
2022/11/05 08:22:04;;;;;;;8.82;5.68;;;;;;;10.06;75.43;100919.13;4142148;28;20045;-66
2022/11/05 08:24:07;;;;;;;11.07;5.68;;;;;;;10.06;74.99;100916.53;4143040;28;20044;-66
2022/11/05 08:26:10;;;;;;;8.82;5.65;;;;;;;10.07;75.17;100913.06;4146156;28;20077;-67
2022/11/05 08:28:13;;;;;;;10.85;5.55;;;;;;;10.14;74.58;100920.16;4149838;28;20108;-67
2022/11/05 08:30:16;;;;;;;10.18;5.72;;;;;;;10.09;74.81;100916.59;4133586;28;20034;-66
2022/11/05 08:32:20;;;;;;;9.70;4.85;;;;;;;10.19;73.91;100920.28;4147795;28;20038;-66
2022/11/05 08:34:23;;;;;;;9.43;5.38;;;;;;;10.24;73.79;100925.59;4145338;28;20417;-67
2022/11/05 08:36:26;;;;;;;10.57;5.80;;;;;;;10.23;74.44;100927.28;4144596;28;20495;-66
2022/11/05 08:38:29;;;;;;;14.30;6.43;;;;;;;10.26;73.37;100926.50;4146961;28;20033;-67
2022/11/05 08:40:33;;;;;;;12.02;6.53;;;;;;;10.26;73.19;100927.34;4146187;28;20041;-66
2022/11/05 08:42:36;;;;;;;9.32;6.47;;;;;;;10.24;72.78;100925.59;4148434;28;20080;-67
2022/11/05 08:44:39;;;;;;;10.27;6.03;;;;;;;10.33;72.74;100935.31;4148942;28;20456;-67
2022/11/05 08:46:42;;;;;;;9.85;6.25;;;;;;;10.31;73.25;100943.09;4145217;28;20107;-65
2022/11/05 08:48:46;;;;;;;9.88;6.07;;;;;;;10.38;73.21;100929.41;4149499;28;20037;-65
2022/11/05 08:50:49;;;;;;;12.25;6.70;;;;;;;10.39;72.63;100940.69;4133852;28;20045;-65
2022/11/05 08:52:52;;;;;;;12.32;7.53;;;;;;;10.53;71.10;100935.78;4148968;28;20038;-66
2022/11/05 08:54:55;;;;;;;20.17;8.02;;;;;;;10.69;70.38;100937.88;4142626;28;20034;-65
2022/11/05 08:56:58;;;;;;;13.10;6.85;;;;;;;10.61;70.54;100931.63;4134114;28;20579;-65
2022/11/05 08:59:01;;;;;;;15.00;7.65;;;;;;;10.47;70.86;100927.00;4147828;28;20042;-65
2022/11/05 09:01:04;;;;;;;12.10;6.75;;;;;;;10.57;70.28;100935.00;4146596;28;20048;-65
2022/11/05 09:03:08;;;;;;;11.80;6.22;;;;;;;10.50;71.36;100938.31;4142305;28;20057;-65
2022/11/05 09:05:13;;;;;;;;;;;;;;;10.49;71.08;100940.03;4147999;28;20121;-65
2022/11/05 09:07:16;;;;;;;14.00;6.47;;;;;;;10.57;71.67;100941.09;4148577;28;20311;-65
2022/11/05 09:09:19;;;;;;;10.60;5.82;;;;;;;10.62;71.36;100944.66;4142514;28;20050;-65
2022/11/05 09:11:22;;;;;;;11.95;5.07;;;;;;;10.65;71.63;100941.25;4145018;28;20492;-66
2022/11/05 09:13:44;;;;;;;8.95;4.63;;;;;;;10.59;72.12;100944.59;4147319;28;20045;-65
2022/11/05 09:15:48;;;;;;;10.38;5.20;;;;;;;10.64;72.09;100947.28;4148214;28;20120;-65
2022/11/05 09:17:51;;;;;;;9.70;4.55;;;;;;;10.59;71.17;100941.13;4147428;28;20037;-65
2022/11/05 09:19:54;;;;;;;10.27;5.53;;;;;;;10.60;71.86;100950.66;4146835;28;20042;-65
2022/11/05 09:21:58;;;;;;;8.60;3.88;;;;;;;10.67;71.61;100947.34;4148171;28;20057;-65
2022/11/05 09:24:01;;;;;;;7.63;4.60;;;;;;;10.73;71.81;100952.72;4151981;28;20057;-65
2022/11/05 09:26:04;;;;;;;7.43;4.03;;;;;;;10.78;71.51;100951.06;4147287;28;20046;-65
2022/11/05 09:28:08;;;;;;;8.05;4.93;;;;;;;10.78;71.95;100952.81;4147190;28;20057;-67
2022/11/05 09:30:17;;;;;;;7.88;4.97;;;;;;;10.80;72.17;100951.09;4145594;28;20041;-66
2022/11/05 09:32:22;;;;;;;9.60;5.35;;;;;;;10.88;71.94;100952.16;4148748;28;20038;-67
2022/11/05 09:34:25;;;;;;;12.48;5.93;;;;;;;10.89;72.13;100950.41;4146717;28;20558;-66
2022/11/05 09:36:27;;;;;;;8.35;5.32;;;;;;;10.92;72.66;100953.06;4146293;28;20084;-66
2022/11/05 09:38:33;;;;;;;7.68;4.82;;;;;;;10.98;71.73;100948.91;4130784;28;20047;-65
2022/11/05 09:40:41;;;;;;;7.80;5.20;;;;;;;10.97;71.86;100956.66;4147220;28;20041;-66
2022/11/05 09:42:45;;;;;;;9.90;4.93;;;;;;;11.07;70.70;100958.59;4148795;28;20092;-66
2022/11/05 09:44:52;;;;;;;10.55;4.97;;;;;;;11.17;71.10;100964.88;4145946;28;20045;-66
2022/11/05 09:46:59;;;;;;;11.07;5.38;;;;;;;11.32;70.11;100969.50;4141126;28;20467;-66
2022/11/05 09:49:05;;;;;;;8.43;5.43;;;;;;;11.39;69.73;100966.16;4148436;28;20046;-66
2022/11/05 09:51:11;;;;;;;9.90;4.63;;;;;;;11.37;70.00;100967.84;4148287;28;20049;-66
2022/11/05 09:53:19;;;;;;;8.85;4.72;;;;;;;11.39;68.84;100966.16;4148167;28;20092;-66
2022/11/05 09:55:27;;;;;;;10.75;5.63;;;;;;;11.45;69.70;100970.63;4146921;28;20120;-66
2022/11/05 09:57:35;;;;;;;11.13;5.18;;;;;;;11.64;69.88;100977.03;4146093;28;20038;-66
2022/11/05 09:59:44;;;;;;;11.10;5.22;;;;;;;11.78;68.90;100974.66;4148054;28;20038;-66
2022/11/05 10:01:47;;;;;;;9.85;6.38;;;;;;;12.01;68.75;100980.31;4146840;28;20045;-66
2022/11/05 10:03:55;;;;;;;8.27;4.43;;;;;;;12.19;68.39;100971.91;4131562;28;20488;-66
2022/11/05 10:06:07;;;;;;;10.68;4.93;;;;;;;12.14;67.83;100969.22;4131982;28;20042;-66
2022/11/05 10:08:15;;;;;;;10.75;5.03;;;;;;;12.10;67.13;100972.63;4144947;28;20038;-66
2022/11/05 10:10:30;;;;;;;9.45;4.88;;;;;;;12.14;67.68;100978.78;4145749;28;20082;-66
2022/11/05 10:12:46;;;;;;;8.00;4.60;;;;;;;12.14;67.54;100970.97;4145119;28;20037;-66
2022/11/05 10:14:58;;;;;;;8.55;5.05;;;;;;;12.11;67.74;100983.97;4147451;28;20038;-66
2022/11/05 10:17:08;;;;;;;8.10;4.47;;;;;;;12.15;66.79;100981.41;4146800;28;20038;-66
2022/11/05 10:19:16;;;;;;;7.80;4.72;;;;;;;12.24;66.81;100985.91;4146653;28;20038;-66
2022/11/05 10:21:20;;;;;;;7.05;4.70;;;;;;;12.17;66.85;100982.31;4147482;28;20158;-66
2022/11/05 10:23:43;;;;;;;9.45;5.03;;;;;;;12.05;67.16;100988.19;4145337;28;20041;-66